Time;durP1;ratioP1;P1;durP2;ratioP2;P2;SDS_P1;SDS_P2;PMS_P1;PMS_P2;Temp;Humidity;BMP_temperature;BMP_pressure;BME280_temperature;BME280_humidity;BME280_pressure;Samples;Min_cycle;Max_cycle;Signal;HPM_P1;HPM_P2
2023/05/02 00:00:30;;;;;;;9.90;6.28;;;7.40;96.20;;;;;;5071791;28;20478;-78
2023/05/02 00:02:56;;;;;;;11.57;6.03;;;7.40;97.30;;;;;;5073229;28;20025;-77
2023/05/02 00:05:21;;;;;;;10.75;5.60;;;7.40;97.80;;;;;;5073206;28;20016;-78
2023/05/02 00:07:47;;;;;;;11.82;6.20;;;7.40;98.70;;;;;;5071868;28;20033;-78
2023/05/02 00:10:13;;;;;;;8.70;6.20;;;7.30;99.10;;;;;;5073460;28;20024;-77
2023/05/02 00:12:38;;;;;;;12.05;6.43;;;7.30;99.60;;;;;;5073101;28;20040;-77
2023/05/02 00:15:05;;;;;;;20.15;9.85;;;7.30;99.80;;;;;;5071996;28;20029;-77
2023/05/02 00:17:30;;;;;;;12.00;7.18;;;7.20;99.90;;;;;;5071602;28;20071;-77
2023/05/02 00:19:56;;;;;;;14.07;7.43;;;7.20;99.90;;;;;;5071655;28;20060;-76
2023/05/02 00:22:22;;;;;;;10.10;7.18;;;7.20;99.90;;;;;;5073193;28;20481;-78
2023/05/02 00:24:47;;;;;;;15.77;7.50;;;7.20;99.90;;;;;;5073120;28;20078;-77
2023/05/02 00:27:13;;;;;;;16.13;8.68;;;7.10;99.90;;;;;;5072944;28;20112;-78
2023/05/02 00:29:39;;;;;;;19.10;9.32;;;7.10;99.90;;;;;;5071750;28;20021;-77
2023/05/02 00:32:05;;;;;;;18.70;9.45;;;7.10;99.90;;;;;;5072905;28;20021;-76
2023/05/02 00:34:32;;;;;;;16.17;8.27;;;7.10;99.90;;;;;;5073577;28;20048;-78
2023/05/02 00:36:58;;;;;;;17.23;9.20;;;7.00;99.90;;;;;;5076993;28;20028;-77
2023/05/02 00:39:24;;;;;;;17.27;8.93;;;7.00;99.90;;;;;;5075832;28;20024;-79
2023/05/02 00:41:58;;;;;;;18.15;8.52;;;7.00;99.90;;;;;;5076779;28;20029;-77
2023/05/02 00:44:23;;;;;;;13.88;7.72;;;7.00;99.90;;;;;;5074037;28;20024;-78
2023/05/02 00:46:49;;;;;;;13.80;8.05;;;7.00;99.90;;;;;;5075346;28;20043;-78
2023/05/02 00:49:15;;;;;;;13.48;7.32;;;7.00;99.90;;;;;;5075494;28;20478;-78
2023/05/02 00:51:41;;;;;;;16.08;7.43;;;7.00;99.90;;;;;;5075226;28;20024;-79
2023/05/02 00:54:06;;;;;;;11.25;6.57;;;6.90;99.90;;;;;;5076694;28;20437;-78
2023/05/02 00:56:32;;;;;;;10.48;6.85;;;6.80;99.90;;;;;;5075393;28;20421;-78
2023/05/02 00:58:59;;;;;;;10.43;6.28;;;6.90;99.90;;;;;;5075321;28;20020;-78
2023/05/02 01:01:47;;;;;;;16.52;7.35;;;6.90;99.90;;;;;;5076444;28;20025;-79
2023/05/02 01:04:22;;;;;;;11.38;7.28;;;6.80;99.90;;;;;;5076579;28;20017;-78
2023/05/02 01:06:56;;;;;;;10.82;6.53;;;6.80;99.90;;;;;;5076467;28;20032;-77
2023/05/02 01:09:40;;;;;;;12.40;6.53;;;6.80;99.90;;;;;;5074909;28;20470;-77
2023/05/02 01:12:37;;;;;;;9.75;5.07;;;6.80;99.90;;;;;;5076359;28;20539;-77
2023/05/02 01:15:06;;;;;;;8.75;5.90;;;6.80;99.90;;;;;;5075009;28;20040;-78
2023/05/02 01:17:34;;;;;;;8.32;6.25;;;6.70;99.90;;;;;;5076220;28;20493;-77
2023/05/02 01:20:10;;;;;;;9.18;6.32;;;6.70;99.90;;;;;;5074948;28;20048;-77
2023/05/02 01:22:39;;;;;;;8.25;5.90;;;6.70;99.90;;;;;;5074701;28;20033;-77
2023/05/02 01:25:08;;;;;;;10.10;6.75;;;6.70;99.90;;;;;;5074862;28;20545;-78
2023/05/02 01:27:52;;;;;;;11.88;6.75;;;6.70;99.90;;;;;;5074566;28;20623;-78
2023/05/02 01:30:20;;;;;;;11.55;6.50;;;6.70;99.90;;;;;;5076069;28;20054;-78
2023/05/02 01:32:47;;;;;;;9.00;6.43;;;6.70;99.90;;;;;;5076143;28;20024;-78
2023/05/02 01:35:17;;;;;;;10.50;6.75;;;6.70;99.90;;;;;;5076051;28;20418;-77
2023/05/02 01:37:45;;;;;;;10.98;6.93;;;6.60;99.90;;;;;;5075838;28;20024;-78
2023/05/02 01:40:16;;;;;;;12.48;7.15;;;6.60;99.90;;;;;;5073949;28;20112;-77
2023/05/02 01:42:43;;;;;;;9.15;6.82;;;6.60;99.90;;;;;;5074206;28;20024;-77
2023/05/02 01:45:11;;;;;;;8.38;6.20;;;6.60;99.90;;;;;;5075512;28;20039;-77
2023/05/02 01:47:38;;;;;;;11.18;6.55;;;6.60;99.90;;;;;;5073311;28;20044;-77
2023/05/02 01:50:08;;;;;;;9.45;6.22;;;6.60;99.90;;;;;;5074122;28;20021;-77
2023/05/02 01:52:35;;;;;;;14.18;6.78;;;6.60;99.90;;;;;;5074355;28;20020;-77
2023/05/02 01:55:01;;;;;;;9.02;6.38;;;6.60;99.90;;;;;;5074316;28;20099;-77
2023/05/02 01:57:27;;;;;;;15.25;7.05;;;6.60;99.90;;;;;;5074488;28;20029;-77
2023/05/02 01:59:56;;;;;;;23.65;11.35;;;6.50;99.90;;;;;;5072355;28;20028;-77
2023/05/02 02:02:25;;;;;;;20.42;10.25;;;6.40;99.90;;;;;;5074274;28;20111;-77
2023/05/02 02:04:54;;;;;;;22.42;11.52;;;6.30;99.90;;;;;;5072944;28;20062;-77
2023/05/02 02:07:20;;;;;;;16.80;8.40;;;6.20;99.90;;;;;;5075160;28;20060;-77
2023/05/02 02:09:45;;;;;;;15.02;7.32;;;6.10;99.90;;;;;;5073357;28;20064;-77
2023/05/02 02:12:18;;;;;;;13.13;7.38;;;6.00;99.90;;;;;;5071741;28;20017;-77
2023/05/02 02:14:49;;;;;;;17.80;7.95;;;5.90;99.90;;;;;;5072924;28;20385;-77
2023/05/02 02:17:40;;;;;;;40.85;17.23;;;5.80;99.90;;;;;;5072913;28;20497;-77
2023/05/02 02:20:09;;;;;;;54.30;21.60;;;5.80;99.90;;;;;;5075036;28;20469;-78
2023/05/02 02:22:39;;;;;;;42.65;19.27;;;5.70;99.90;;;;;;5072650;28;20473;-78
2023/05/02 02:25:09;;;;;;;30.08;13.98;;;5.70;99.90;;;;;;5072675;28;20029;-76
2023/05/02 02:27:36;;;;;;;32.50;14.25;;;5.70;99.90;;;;;;5074430;28;20056;-77
2023/05/02 02:30:02;;;;;;;19.20;10.88;;;5.70;99.90;;;;;;5072909;28;20036;-77
2023/05/02 02:32:28;;;;;;;25.33;12.20;;;5.70;99.90;;;;;;5071786;28;20017;-78
2023/05/02 02:34:54;;;;;;;23.83;11.82;;;5.60;99.90;;;;;;5071550;28;20044;-78
2023/05/02 02:37:32;;;;;;;29.77;12.80;;;5.60;99.90;;;;;;5070690;28;20047;-77
2023/05/02 02:40:31;;;;;;;27.95;12.18;;;5.70;99.90;;;;;;5069725;28;20153;-78
2023/05/02 02:43:12;;;;;;;22.60;11.25;;;5.70;99.90;;;;;;5072014;28;20029;-76
2023/05/02 02:45:52;;;;;;;19.92;11.85;;;5.60;99.90;;;;;;5072269;28;20490;-78
2023/05/02 02:48:36;;;;;;;19.48;10.95;;;5.50;99.90;;;;;;5074382;28;20024;-78
2023/05/02 02:51:12;;;;;;;22.83;11.35;;;5.50;99.90;;;;;;5071660;28;20028;-78
2023/05/02 02:54:00;;;;;;;12.95;7.97;;;5.50;99.90;;;;;;5072525;28;20021;-77
2023/05/02 02:56:34;;;;;;;17.08;9.40;;;5.60;99.90;;;;;;5072493;28;20031;-77
2023/05/02 02:59:08;;;;;;;18.17;9.65;;;5.70;99.90;;;;;;5072793;28;20127;-76
2023/05/02 03:01:38;;;;;;;18.25;9.73;;;5.60;99.90;;;;;;5072522;28;20025;-78
2023/05/02 03:04:07;;;;;;;21.05;10.40;;;5.60;99.90;;;;;;5072362;28;20166;-78
2023/05/02 03:06:33;;;;;;;21.17;9.32;;;5.60;99.90;;;;;;5069754;28;20056;-78
2023/05/02 03:08:58;;;;;;;21.02;12.05;;;5.70;99.90;;;;;;5071909;28;20025;-77
2023/05/02 03:11:24;;;;;;;13.50;7.53;;;5.60;99.90;;;;;;5073811;28;20386;-76
2023/05/02 03:13:51;;;;;;;12.25;7.43;;;5.60;99.90;;;;;;5072816;28;20031;-77
2023/05/02 03:16:38;;;;;;;17.20;9.10;;;5.70;99.90;;;;;;5071496;28;20020;-77
2023/05/02 03:19:04;;;;;;;10.82;7.13;;;5.60;99.90;;;;;;5080633;28;20024;-79
2023/05/02 03:21:31;;;;;;;11.98;7.55;;;5.70;99.90;;;;;;5072828;28;20408;-78
2023/05/02 03:24:01;;;;;;;16.73;9.02;;;5.80;99.90;;;;;;5073723;28;20017;-77
2023/05/02 03:26:27;;;;;;;11.70;7.50;;;5.80;99.90;;;;;;5073729;28;20104;-78
2023/05/02 03:28:53;;;;;;;12.90;7.78;;;5.90;99.90;;;;;;5072483;28;20404;-76
2023/05/02 03:31:20;;;;;;;16.45;7.43;;;6.00;99.90;;;;;;5073750;28;20039;-76
2023/05/02 03:33:46;;;;;;;15.77;7.32;;;6.10;99.90;;;;;;5073497;28;20074;-77
2023/05/02 03:36:12;;;;;;;13.70;7.95;;;6.20;99.90;;;;;;5073685;28;20482;-78
2023/05/02 03:38:37;;;;;;;12.95;7.18;;;6.10;99.90;;;;;;5073620;28;20028;-78
2023/05/02 03:41:03;;;;;;;12.38;8.45;;;6.00;99.90;;;;;;5073424;28;20092;-79
2023/05/02 03:43:29;;;;;;;17.27;8.40;;;6.10;99.90;;;;;;5073452;28;20032;-78
2023/05/02 03:45:55;;;;;;;19.70;9.82;;;6.00;99.90;;;;;;5073392;28;20016;-79
2023/05/02 03:48:20;;;;;;;13.50;7.80;;;6.00;99.90;;;;;;5073334;28;20093;-79
2023/05/02 03:50:47;;;;;;;9.57;7.45;;;6.00;99.90;;;;;;5070317;28;20507;-79
2023/05/02 03:53:14;;;;;;;12.45;7.30;;;6.00;99.90;;;;;;5070211;28;20493;-77
2023/05/02 03:55:41;;;;;;;16.92;8.77;;;5.90;99.90;;;;;;5070152;28;20032;-79
2023/05/02 03:58:07;;;;;;;15.68;8.30;;;6.00;99.90;;;;;;5072295;28;20120;-76
2023/05/02 04:00:33;;;;;;;10.93;6.95;;;6.10;99.90;;;;;;5070113;28;20401;-77
2023/05/02 04:03:02;;;;;;;8.98;6.10;;;6.20;99.90;;;;;;5070260;28;20032;-79
2023/05/02 04:05:28;;;;;;;9.45;6.55;;;6.40;99.90;;;;;;5071026;28;20389;-77
2023/05/02 04:07:57;;;;;;;13.73;6.63;;;6.50;99.90;;;;;;5072005;28;20039;-77
2023/05/02 04:10:22;;;;;;;15.95;8.30;;;6.60;99.90;;;;;;5070991;28;20119;-77
2023/05/02 04:12:48;;;;;;;16.27;9.25;;;6.70;99.90;;;;;;5069810;28;20119;-77
2023/05/02 04:15:14;;;;;;;20.35;10.10;;;6.70;99.90;;;;;;5069986;28;20067;-78
2023/05/02 04:17:40;;;;;;;26.73;10.60;;;6.80;99.90;;;;;;5061910;28;20033;-77
2023/05/02 04:20:06;;;;;;;17.20;8.70;;;6.90;99.90;;;;;;5070970;28;20068;-77
2023/05/02 04:22:32;;;;;;;8.68;5.38;;;7.00;99.90;;;;;;5071875;28;20025;-77
2023/05/02 04:24:58;;;;;;;7.45;4.68;;;7.20;99.90;;;;;;5069993;28;20033;-78
2023/05/02 04:27:24;;;;;;;13.10;7.57;;;7.40;99.90;;;;;;5072826;28;20090;-77
2023/05/02 04:29:50;;;;;;;13.60;7.00;;;7.50;99.90;;;;;;5072023;28;20036;-79
2023/05/02 04:32:16;;;;;;;12.23;6.35;;;7.60;99.90;;;;;;5071743;28;20017;-79
2023/05/02 04:34:41;;;;;;;12.20;5.93;;;7.70;99.90;;;;;;5071806;28;20128;-78
2023/05/02 04:37:07;;;;;;;8.80;5.40;;;7.90;99.90;;;;;;5070758;28;20021;-79
2023/05/02 04:39:33;;;;;;;10.45;7.30;;;8.00;98.40;;;;;;5071057;28;20028;-77
2023/05/02 04:41:59;;;;;;;11.40;6.07;;;8.20;95.30;;;;;;5070799;28;20482;-77
2023/05/02 04:44:25;;;;;;;7.47;5.07;;;8.30;96.00;;;;;;5069779;28;20021;-78
2023/05/02 04:46:50;;;;;;;9.07;5.90;;;8.50;93.80;;;;;;5071754;28;20131;-77
2023/05/02 04:49:16;;;;;;;11.05;6.40;;;8.60;93.40;;;;;;5071561;28;20032;-77
2023/05/02 04:51:42;;;;;;;10.07;5.53;;;8.60;95.20;;;;;;5072507;28;20020;-77
2023/05/02 04:54:08;;;;;;;12.10;6.38;;;8.70;96.90;;;;;;5070738;28;20055;-77
2023/05/02 04:56:33;;;;;;;5.97;3.83;;;8.80;97.50;;;;;;5070599;28;20028;-77
2023/05/02 04:58:59;;;;;;;28.42;8.80;;;8.90;90.70;;;;;;5071338;28;20032;-78
2023/05/02 05:01:26;;;;;;;8.10;3.90;;;9.10;92.50;;;;;;5069068;28;20025;-79
2023/05/02 05:03:53;;;;;;;8.40;4.63;;;9.20;93.30;;;;;;5067088;28;20017;-78
2023/05/02 05:06:18;;;;;;;10.30;4.95;;;9.40;90.50;;;;;;5069256;28;20394;-79
2023/05/02 05:08:45;;;;;;;8.82;5.47;;;9.50;87.90;;;;;;5065936;28;20021;-77
2023/05/02 05:11:11;;;;;;;8.27;5.28;;;9.70;87.60;;;;;;5064737;28;20033;-77
2023/05/02 05:13:37;;;;;;;12.27;6.72;;;9.80;88.90;;;;;;5066183;28;20027;-79
2023/05/02 05:16:03;;;;;;;7.70;5.47;;;10.00;89.60;;;;;;5066265;28;20103;-78
2023/05/02 05:18:29;;;;;;;10.23;6.03;;;10.10;89.10;;;;;;5064948;28;20601;-78
2023/05/02 05:20:55;;;;;;;10.13;5.43;;;10.30;88.80;;;;;;5065033;28;20040;-78
2023/05/02 05:23:21;;;;;;;10.90;4.38;;;10.50;93.20;;;;;;5069094;28;20020;-77
2023/05/02 05:25:46;;;;;;;12.23;4.70;;;10.70;89.70;;;;;;5071471;28;20099;-79
2023/05/02 05:28:12;;;;;;;7.65;4.53;;;10.90;86.00;;;;;;5072485;28;20028;-79
2023/05/02 05:30:38;;;;;;;7.05;3.72;;;11.10;81.60;;;;;;5070966;28;20089;-79
2023/05/02 05:33:04;;;;;;;7.90;4.32;;;11.30;77.60;;;;;;5073138;28;20642;-78
2023/05/02 05:35:31;;;;;;;5.22;3.20;;;11.60;77.00;;;;;;5070721;28;20060;-77
2023/05/02 05:37:57;;;;;;;3.72;3.10;;;11.80;73.70;;;;;;5073681;28;20024;-80
2023/05/02 05:40:24;;;;;;;5.70;3.05;;;12.00;70.00;;;;;;5072257;28;20064;-79
2023/05/02 05:42:49;;;;;;;5.15;2.80;;;12.30;67.90;;;;;;5072030;28;20098;-79
2023/05/02 05:45:16;;;;;;;5.30;2.85;;;12.50;66.30;;;;;;5073278;28;20024;-79
2023/05/02 05:47:41;;;;;;;6.82;3.38;;;12.70;62.60;;;;;;5073931;28;20128;-78
2023/05/02 05:50:07;;;;;;;6.65;4.15;;;13.00;62.70;;;;;;5074126;28;20095;-79
2023/05/02 05:52:33;;;;;;;6.57;3.78;;;13.10;60.70;;;;;;5070315;28;20063;-79
2023/05/02 05:54:59;;;;;;;7.00;3.92;;;13.30;59.40;;;;;;5070950;28;20029;-78
2023/05/02 05:57:24;;;;;;;9.70;4.10;;;13.40;58.70;;;;;;5070106;28;20020;-79
2023/05/02 05:59:50;;;;;;;4.45;2.90;;;13.60;58.90;;;;;;5072717;28;20040;-78
2023/05/02 06:02:16;;;;;;;3.58;2.92;;;13.70;58.80;;;;;;5073261;28;20051;-79
2023/05/02 06:04:42;;;;;;;5.35;3.67;;;13.90;58.70;;;;;;5070009;28;20024;-79
2023/05/02 06:07:07;;;;;;;3.45;2.63;;;13.90;58.10;;;;;;5067112;28;20048;-79
2023/05/02 06:09:33;;;;;;;9.68;4.40;;;14.10;58.70;;;;;;5067619;28;20027;-78
2023/05/02 06:12:01;;;;;;;4.30;2.97;;;14.20;59.00;;;;;;5070051;28;20025;-78
2023/05/02 06:14:26;;;;;;;6.85;3.47;;;14.30;60.50;;;;;;5070163;28;20032;-79
2023/05/02 06:16:52;;;;;;;2.78;2.50;;;14.50;61.10;;;;;;5069849;28;20036;-79
2023/05/02 06:19:18;;;;;;;3.97;2.40;;;14.70;60.10;;;;;;5073933;28;20025;-79
2023/05/02 06:21:43;;;;;;;3.50;2.50;;;14.80;58.20;;;;;;5069828;28;20125;-79
2023/05/02 06:24:09;;;;;;;5.93;3.05;;;15.00;58.50;;;;;;5071201;28;20066;-79
2023/05/02 06:26:35;;;;;;;3.72;2.47;;;15.20;57.60;;;;;;5071522;28;20031;-79
2023/05/02 06:29:01;;;;;;;2.88;2.50;;;15.40;57.40;;;;;;5071573;28;20526;-79
2023/05/02 06:31:27;;;;;;;4.00;2.20;;;15.50;56.50;;;;;;5069720;28;20051;-79
2023/05/02 06:33:52;;;;;;;2.47;2.28;;;15.70;56.70;;;;;;5069947;28;20072;-79
2023/05/02 06:36:18;;;;;;;2.92;1.98;;;15.90;57.00;;;;;;5071339;28;20027;-79
2023/05/02 06:38:43;;;;;;;3.35;1.90;;;16.10;56.40;;;;;;5073012;28;20028;-79
2023/05/02 06:41:15;;;;;;;2.47;2.20;;;16.30;56.90;;;;;;5072115;28;20040;-79
2023/05/02 06:43:41;;;;;;;3.10;2.17;;;16.40;55.40;;;;;;5068301;28;20388;-79
2023/05/02 06:46:07;;;;;;;2.95;2.47;;;16.60;56.40;;;;;;5073567;28;20032;-80
2023/05/02 06:48:36;;;;;;;3.00;2.35;;;16.70;54.40;;;;;;5069562;28;20032;-79
2023/05/02 06:51:03;;;;;;;2.63;2.40;;;16.80;55.20;;;;;;5071275;28;20021;-79
2023/05/02 06:53:32;;;;;;;3.55;2.55;;;17.00;55.30;;;;;;5065557;28;20047;-80
2023/05/02 06:55:57;;;;;;;4.50;2.75;;;17.10;54.10;;;;;;5068697;28;20028;-79
2023/05/02 06:58:23;;;;;;;5.38;2.40;;;17.20;52.90;;;;;;5070512;28;20028;-80
2023/05/02 07:00:49;;;;;;;5.00;2.85;;;17.30;53.70;;;;;;5072241;28;20033;-81
2023/05/02 07:03:15;;;;;;;6.47;2.10;;;17.40;52.80;;;;;;5068596;28;20089;-80
2023/05/02 07:05:40;;;;;;;4.70;2.35;;;17.70;52.80;;;;;;5070798;28;20036;-80
2023/05/02 07:08:07;;;;;;;4.40;2.72;;;17.70;51.80;;;;;;5067892;28;20075;-79
2023/05/02 07:10:33;;;;;;;5.00;2.67;;;17.80;51.80;;;;;;5066821;28;20052;-78
2023/05/02 07:12:59;;;;;;;4.55;2.88;;;17.80;51.10;;;;;;5062126;28;20064;-79
2023/05/02 07:15:24;;;;;;;6.32;3.60;;;17.80;51.70;;;;;;5071919;28;20063;-79
2023/05/02 07:17:50;;;;;;;6.15;3.42;;;17.80;51.50;;;;;;5068051;28;20039;-79
2023/05/02 07:20:15;;;;;;;7.97;4.60;;;17.80;51.30;;;;;;5064576;28;20385;-79
2023/05/02 07:22:42;;;;;;;5.25;2.95;;;17.90;52.40;;;;;;5067313;28;20082;-79
2023/05/02 07:25:08;;;;;;;6.80;3.17;;;18.00;51.90;;;;;;5072958;28;20070;-80
2023/05/02 07:27:34;;;;;;;3.75;3.00;;;17.80;50.50;;;;;;5071735;28;20024;-79
2023/05/02 07:30:00;;;;;;;3.05;2.50;;;17.80;51.50;;;;;;5073483;28;20043;-79
2023/05/02 07:32:25;;;;;;;9.35;4.63;;;18.00;52.20;;;;;;5073809;28;20029;-79
2023/05/02 07:34:55;;;;;;;7.38;4.05;;;18.10;52.20;;;;;;5073667;28;20060;-79
2023/05/02 07:37:20;;;;;;;10.90;4.53;;;18.30;52.50;;;;;;5071240;28;20382;-79
2023/05/02 07:39:46;;;;;;;10.95;4.22;;;18.30;51.00;;;;;;5073420;28;20035;-80
2023/05/02 07:42:12;;;;;;;7.00;3.88;;;18.30;50.80;;;;;;5069156;28;20028;-79
2023/05/02 07:44:37;;;;;;;7.95;4.28;;;18.50;52.50;;;;;;5070532;28;20029;-80
2023/05/02 07:47:03;;;;;;;5.65;3.55;;;18.60;51.80;;;;;;5071279;28;20114;-80
2023/05/02 07:49:30;;;;;;;5.90;3.38;;;18.70;51.90;;;;;;5072201;28;20029;-80
2023/05/02 07:51:55;;;;;;;4.32;2.85;;;18.70;50.80;;;;;;5071454;28;20040;-80
2023/05/02 07:54:23;;;;;;;7.28;3.65;;;18.50;49.90;;;;;;5067926;28;21149;-80
2023/05/02 07:56:49;;;;;;;6.88;3.70;;;18.60;50.70;;;;;;5070367;28;20033;-79
2023/05/02 07:59:15;;;;;;;3.22;2.50;;;18.60;50.60;;;;;;5069716;28;20028;-79
2023/05/02 08:01:40;;;;;;;6.15;3.20;;;18.50;50.60;;;;;;5069173;28;20025;-80
2023/05/02 08:04:09;;;;;;;7.47;3.95;;;18.60;51.60;;;;;;5067750;28;20370;-79
2023/05/02 08:06:35;;;;;;;6.72;3.95;;;18.50;50.70;;;;;;5068280;28;20046;-79
2023/05/02 08:09:01;;;;;;;9.25;4.75;;;18.40;51.10;;;;;;5076703;28;20363;-79
2023/05/02 08:11:26;;;;;;;12.88;5.85;;;18.30;51.00;;;;;;5068473;28;20031;-77
2023/05/02 08:13:52;;;;;;;5.63;3.80;;;18.20;51.40;;;;;;5063344;28;20052;-78
2023/05/02 08:16:18;;;;;;;6.60;4.03;;;18.20;51.70;;;;;;5069120;28;20078;-77
2023/05/02 08:18:43;;;;;;;6.57;4.65;;;18.00;51.20;;;;;;5066409;28;20030;-78
2023/05/02 08:21:09;;;;;;;6.43;4.32;;;18.10;52.20;;;;;;5068742;28;20056;-77
2023/05/02 08:23:36;;;;;;;5.88;3.47;;;18.10;52.50;;;;;;5067720;28;20028;-79
2023/05/02 08:26:02;;;;;;;5.30;3.25;;;18.10;52.40;;;;;;5067537;28;20078;-79
2023/05/02 08:28:29;;;;;;;4.93;3.72;;;18.00;52.40;;;;;;5068018;28;20119;-78
2023/05/02 08:30:55;;;;;;;9.27;4.80;;;18.00;52.10;;;;;;5070807;28;20025;-77
2023/05/02 08:33:20;;;;;;;4.90;3.10;;;18.00;53.30;;;;;;5069245;28;20053;-78
2023/05/02 08:35:46;;;;;;;5.38;3.70;;;18.10;53.00;;;;;;5070586;28;20060;-78
2023/05/02 08:38:12;;;;;;;5.18;3.70;;;17.90;51.80;;;;;;5070508;28;20025;-78
2023/05/02 08:40:38;;;;;;;5.45;3.40;;;18.00;52.20;;;;;;5070548;28;20028;-78
2023/05/02 08:43:07;;;;;;;5.32;3.05;;;18.10;52.00;;;;;;5069994;28;20108;-78
2023/05/02 08:45:39;;;;;;;7.30;3.60;;;18.30;51.80;;;;;;5071684;28;20020;-77
2023/05/02 08:48:10;;;;;;;5.63;4.03;;;18.60;52.70;;;;;;5069523;28;20123;-78
2023/05/02 08:50:42;;;;;;;7.30;4.35;;;18.80;52.00;;;;;;5068453;28;20027;-79
2023/05/02 08:53:09;;;;;;;4.35;3.45;;;19.10;52.90;;;;;;5068401;28;20021;-79
2023/05/02 08:55:40;;;;;;;5.38;3.67;;;19.40;52.90;;;;;;5071078;28;20379;-79
2023/05/02 08:58:07;;;;;;;8.27;5.53;;;19.40;50.20;;;;;;5067020;28;20104;-79
2023/05/02 09:00:39;;;;;;;5.78;3.83;;;19.60;51.40;;;;;;5074277;28;20497;-79
2023/05/02 09:03:11;;;;;;;4.93;3.35;;;19.60;50.60;;;;;;5072171;28;20351;-79
2023/05/02 09:05:41;;;;;;;3.92;3.45;;;19.50;50.30;;;;;;5074549;28;20052;-79
2023/05/02 09:08:07;;;;;;;6.80;4.72;;;19.40;50.30;;;;;;5071337;28;20032;-79
2023/05/02 09:10:38;;;;;;;5.45;4.28;;;19.30;51.50;;;;;;5073529;28;20527;-79
2023/05/02 09:13:29;;;;;;;6.07;4.15;;;19.40;51.00;;;;;;5073467;28;20837;-80
2023/05/02 09:16:22;;;;;;;3.47;3.17;;;19.50;50.90;;;;;;5073338;28;20035;-79
2023/05/02 09:18:50;;;;;;;5.90;2.85;;;19.70;50.50;;;;;;5070608;28;20117;-79
2023/05/02 09:21:20;;;;;;;5.13;3.13;;;19.90;50.20;;;;;;5072840;28;20485;-78
2023/05/02 09:23:48;;;;;;;5.03;3.15;;;20.00;48.80;;;;;;5073114;28;20580;-79
2023/05/02 09:26:17;;;;;;;5.60;2.88;;;20.00;49.60;;;;;;5069327;28;20012;-79
2023/05/02 09:28:44;;;;;;;3.22;2.63;;;20.00;49.00;;;;;;5075904;28;20024;-80
2023/05/02 09:31:11;;;;;;;4.78;3.13;;;20.00;48.90;;;;;;5072894;28;20166;-78
2023/05/02 09:33:38;;;;;;;4.32;3.10;;;20.00;48.90;;;;;;5074258;28;20049;-78
2023/05/02 09:36:06;;;;;;;3.42;3.00;;;20.00;48.40;;;;;;5075685;28;20033;-78
2023/05/02 09:38:32;;;;;;;4.38;2.90;;;20.00;49.10;;;;;;5075712;28;20082;-78
2023/05/02 09:40:58;;;;;;;3.78;2.58;;;20.00;49.50;;;;;;5069547;28;20024;-79
2023/05/02 09:43:25;;;;;;;21.20;14.25;;;19.80;49.60;;;;;;5074055;28;20501;-79
2023/05/02 09:46:05;;;;;;;28.95;24.33;;;19.70;49.90;;;;;;5071790;28;20478;-79
2023/05/02 09:48:49;;;;;;;6.55;6.05;;;19.70;49.80;;;;;;5070491;28;20032;-79
2023/05/02 09:51:19;;;;;;;9.43;7.90;;;19.80;49.70;;;;;;5072761;28;20059;-78
2023/05/02 09:53:45;;;;;;;8.73;6.45;;;20.00;50.70;;;;;;5071488;28;20023;-79
2023/05/02 09:56:11;;;;;;;9.63;5.53;;;20.40;50.10;;;;;;5069736;28;20065;-78
2023/05/02 09:58:37;;;;;;;7.40;4.63;;;20.60;49.20;;;;;;5073858;28;20103;-78
2023/05/02 10:01:03;;;;;;;3.17;2.83;;;20.50;48.50;;;;;;5068754;28;20393;-78
2023/05/02 10:03:30;;;;;;;5.43;3.20;;;20.30;48.40;;;;;;5072729;28;20020;-79
2023/05/02 10:05:56;;;;;;;5.70;4.20;;;20.30;48.80;;;;;;5072685;28;20032;-78
2023/05/02 10:08:26;;;;;;;6.22;3.17;;;20.30;50.90;;;;;;5071891;28;20512;-79
2023/05/02 10:10:57;;;;;;;4.90;3.58;;;20.00;49.50;;;;;;5071147;28;20035;-78
2023/05/02 10:13:26;;;;;;;4.68;3.88;;;19.90;48.50;;;;;;5072542;28;20029;-78
2023/05/02 10:16:00;;;;;;;4.97;3.70;;;20.10;50.40;;;;;;5071821;28;20095;-78
2023/05/02 10:18:28;;;;;;;5.07;3.90;;;20.10;49.40;;;;;;5071730;28;20028;-79
2023/05/02 10:20:58;;;;;;;7.88;4.07;;;20.20;49.00;;;;;;5072587;28;20028;-79
2023/05/02 10:23:29;;;;;;;7.75;4.45;;;20.30;48.00;;;;;;5073977;28;20024;-79
2023/05/02 10:25:57;;;;;;;4.53;3.80;;;20.70;49.20;;;;;;5074767;28;20096;-78
2023/05/02 10:28:23;;;;;;;5.38;3.92;;;20.60;47.50;;;;;;5074644;28;20028;-79
2023/05/02 10:30:50;;;;;;;6.47;3.88;;;21.00;48.10;;;;;;5073273;28;20033;-78
2023/05/02 10:33:19;;;;;;;7.45;3.83;;;20.80;47.50;;;;;;5074510;28;20053;-78
2023/05/02 10:35:48;;;;;;;9.25;4.40;;;20.80;47.50;;;;;;5073249;28;20487;-78
2023/05/02 10:38:20;;;;;;;4.63;3.65;;;20.60;47.30;;;;;;5073248;28;20081;-77
2023/05/02 10:41:02;;;;;;;5.93;3.67;;;20.50;48.40;;;;;;5074428;28;20517;-78
2023/05/02 10:43:32;;;;;;;7.43;3.78;;;20.60;48.70;;;;;;5074397;28;20487;-77
2023/05/02 10:45:58;;;;;;;5.38;3.40;;;20.50;47.90;;;;;;5074659;28;20028;-77
2023/05/02 10:48:25;;;;;;;5.63;3.55;;;20.30;47.90;;;;;;5073069;28;20033;-79
2023/05/02 10:51:00;;;;;;;6.78;3.45;;;20.40;48.10;;;;;;5074286;28;20021;-79
2023/05/02 10:53:35;;;;;;;5.45;3.38;;;20.30;48.30;;;;;;5074208;28;20069;-79
2023/05/02 10:56:20;;;;;;;4.10;2.80;;;20.50;48.90;;;;;;5072206;28;20482;-79
2023/05/02 10:58:50;;;;;;;4.95;3.63;;;20.50;48.40;;;;;;5073659;28;20024;-77
2023/05/02 11:01:28;;;;;;;3.38;3.08;;;20.60;49.70;;;;;;5074261;28;20100;-79
2023/05/02 11:04:10;;;;;;;5.97;3.65;;;20.60;48.60;;;;;;5072425;28;20029;-78
2023/05/02 11:06:54;;;;;;;3.47;2.92;;;20.80;49.10;;;;;;5072307;28;20576;-79
2023/05/02 11:09:23;;;;;;;4.35;3.40;;;21.10;48.10;;;;;;5071832;28;20024;-78
2023/05/02 11:11:51;;;;;;;8.07;3.95;;;21.00;48.20;;;;;;5070388;28;20024;-78
2023/05/02 11:14:28;;;;;;;5.00;3.15;;;21.30;48.60;;;;;;5072158;28;20024;-78
2023/05/02 11:17:14;;;;;;;3.55;3.25;;;21.30;47.60;;;;;;5071709;28;20029;-79
2023/05/02 11:19:43;;;;;;;3.45;2.88;;;21.40;48.50;;;;;;5071342;28;20039;-80
2023/05/02 11:22:18;;;;;;;5.03;3.30;;;20.90;48.80;;;;;;5071402;28;21775;-78
2023/05/02 11:24:49;;;;;;;5.18;3.03;;;20.70;48.90;;;;;;5070280;28;20028;-80
2023/05/02 11:27:30;;;;;;;5.35;3.40;;;20.50;48.80;;;;;;5070469;28;20485;-79
2023/05/02 11:30:06;;;;;;;5.47;3.60;;;20.10;49.80;;;;;;5077363;28;20021;-78
2023/05/02 11:32:44;;;;;;;7.60;3.25;;;20.30;50.20;;;;;;5076286;28;20020;-77
2023/05/02 11:35:18;;;;;;;4.78;4.00;;;20.50;50.90;;;;;;5071305;28;20053;-77
2023/05/02 11:38:01;;;;;;;6.90;4.63;;;20.60;50.20;;;;;;5071733;28;20024;-78
2023/05/02 11:40:28;;;;;;;5.45;3.70;;;20.80;51.30;;;;;;5072370;28;20031;-79
2023/05/02 11:42:56;;;;;;;4.80;3.53;;;20.80;49.30;;;;;;5072966;28;20017;-80
2023/05/02 11:45:31;;;;;;;6.00;3.63;;;20.70;49.80;;;;;;5085261;28;20947;-79
2023/05/02 11:47:57;;;;;;;5.22;4.00;;;20.80;50.20;;;;;;5070646;28;20029;-80
2023/05/02 11:50:24;;;;;;;6.47;4.00;;;20.60;50.40;;;;;;5071182;28;20020;-79
2023/05/02 11:52:50;;;;;;;5.38;3.85;;;20.70;50.20;;;;;;5072895;28;20096;-79
2023/05/02 11:55:16;;;;;;;4.75;4.18;;;20.70;50.70;;;;;;5073293;28;20104;-79
2023/05/02 11:57:42;;;;;;;4.38;3.58;;;20.70;50.60;;;;;;5071456;28;20099;-79
2023/05/02 12:00:10;;;;;;;6.90;4.10;;;20.60;52.40;;;;;;5072501;28;20526;-79
2023/05/02 12:02:41;;;;;;;5.45;4.28;;;20.80;52.40;;;;;;5071731;28;20428;-79
2023/05/02 12:05:09;;;;;;;6.18;4.72;;;20.80;53.00;;;;;;5072704;28;20032;-79
2023/05/02 12:07:38;;;;;;;5.72;5.13;;;20.80;52.20;;;;;;5071037;28;20531;-80
2023/05/02 12:10:05;;;;;;;5.13;4.55;;;20.30;52.70;;;;;;5071144;28;20024;-80
2023/05/02 12:12:31;;;;;;;8.18;5.05;;;20.40;53.80;;;;;;5072361;28;20056;-79
2023/05/02 12:14:57;;;;;;;9.77;4.57;;;20.40;54.00;;;;;;5071832;28;20032;-78
2023/05/02 12:17:23;;;;;;;6.75;4.60;;;20.20;53.80;;;;;;5069076;28;20035;-79
2023/05/02 12:19:49;;;;;;;5.07;4.53;;;20.30;53.40;;;;;;5071450;28;20250;-79
2023/05/02 12:22:16;;;;;;;4.80;3.95;;;20.30;53.20;;;;;;5071522;28;20170;-79
2023/05/02 12:24:42;;;;;;;4.68;4.10;;;20.20;53.10;;;;;;5072415;28;20032;-79
2023/05/02 12:27:12;;;;;;;5.20;4.35;;;20.30;54.60;;;;;;5075451;28;20062;-79
2023/05/02 12:29:44;;;;;;;4.47;3.92;;;20.30;53.10;;;;;;5071656;28;20077;-79
2023/05/02 12:32:10;;;;;;;5.57;4.57;;;20.40;52.90;;;;;;5072912;28;20051;-79
2023/05/02 12:34:37;;;;;;;5.22;4.57;;;20.20;53.10;;;;;;5074362;28;20498;-79
2023/05/02 12:37:03;;;;;;;6.05;4.55;;;20.50;54.10;;;;;;5073398;28;20506;-79
2023/05/02 12:39:42;;;;;;;4.30;3.90;;;20.40;53.20;;;;;;5072651;28;20013;-79
2023/05/02 12:42:15;;;;;;;5.03;4.03;;;20.40;53.30;;;;;;5071996;28;20021;-79
2023/05/02 12:44:43;;;;;;;5.10;4.28;;;20.50;53.40;;;;;;5072943;28;20081;-81
2023/05/02 12:47:11;;;;;;;5.93;4.10;;;20.50;53.70;;;;;;5074490;28;20028;-78
2023/05/02 12:49:57;;;;;;;4.70;4.30;;;20.10;53.60;;;;;;5074576;28;20013;-79
2023/05/02 12:52:45;;;;;;;7.72;4.55;;;19.80;54.80;;;;;;5073679;28;20382;-79